Wetterdaten: aktuell Samstag, 23.03.2019 21:15
Datum Zeit Auentemp. Feuchte A. Luftdruck Niederschl. Wind Richtung Richtung Sonnenschein UV Windben
23.03.2019 21:15 9,0 C 63 % 1027,1 hPa 0,0 l/m 0,0 km/h NW 306 0 min 0,0 UV-I 0,0 km/h
23.03.2019 20:15 11,4 C 54 % 1027,1 hPa 0,0 l/m 2,9 km/h NW 310 0 min 0,0 UV-I 4,8 km/h
23.03.2019 19:15 13,1 C 48 % 1026,7 hPa 0,0 l/m 0,0 km/h NW 315 5 min 0,0 UV-I 0,0 km/h
23.03.2019 18:15 15,4 C 42 % 1026,1 hPa 0,0 l/m 3,4 km/h NW 322 55 min 0,0 UV-I 9,7 km/h
23.03.2019 17:15 17,8 C 36 % 1025,9 hPa 0,0 l/m 4,5 km/h NW 325 60 min 0,0 UV-I 8,0 km/h
23.03.2019 16:15 18,2 C 37 % 1026,1 hPa 0,0 l/m 5,8 km/h NW 310 60 min 0,8 UV-I 11,3 km/h
23.03.2019 15:15 18,5 C 38 % 1026,2 hPa 0,0 l/m 4,7 km/h NW 310 60 min 1,5 UV-I 11,3 km/h
23.03.2019 14:15 17,9 C 42 % 1026,8 hPa 0,0 l/m 3,2 km/h S-SW 196 60 min 2,5 UV-I 8,0 km/h
23.03.2019 13:15 17,8 C 43 % 1027,2 hPa 0,0 l/m 0,5 km/h O-NO 68 60 min 3,4 UV-I 3,2 km/h
23.03.2019 12:15 15,9 C 46 % 1027,8 hPa 0,0 l/m 2,8 km/h O-NO 75 60 min 3,6 UV-I 8,0 km/h
23.03.2019 11:15 13,7 C 53 % 1028,3 hPa 0,0 l/m 4,4 km/h O-SO 117 60 min 3,1 UV-I 9,7 km/h
23.03.2019 10:15 10,1 C 67 % 1028,8 hPa 0,0 l/m 4,0 km/h O-SO 106 60 min 2,3 UV-I 8,0 km/h
23.03.2019 09:15 6,3 C 78 % 1028,8 hPa 0,0 l/m 0,0 km/h O 101 30 min 1,3 UV-I 0,0 km/h
23.03.2019 08:15 2,3 C 90 % 1029,0 hPa 0,0 l/m 0,0 km/h O-SO 106 0 min 0,5 UV-I 0,0 km/h
23.03.2019 07:15 -0,3 C 93 % 1028,9 hPa 0,0 l/m 0,0 km/h N 0 5 min 0,0 UV-I 0,0 km/h
23.03.2019 06:15 -0,6 C 92 % 1028,4 hPa 0,0 l/m 0,0 km/h N 0 0 min 0,0 UV-I 0,0 km/h
23.03.2019 05:15 -0,2 C 92 % 1028,3 hPa 0,0 l/m 0,0 km/h N 0 0 min 0,0 UV-I 0,0 km/h
23.03.2019 04:15 0,1 C 91 % 1028,3 hPa 0,0 l/m 0,0 km/h N 0 0 min 0,0 UV-I 0,0 km/h
23.03.2019 03:15 0,7 C 91 % 1028,3 hPa 0,0 l/m 0,0 km/h N 0 0 min 0,0 UV-I 0,0 km/h
23.03.2019 02:15 1,4 C 87 % 1028,3 hPa 0,0 l/m 0,0 km/h N 0 0 min 0,0 UV-I 0,0 km/h
23.03.2019 01:15 2,2 C 85 % 1028,5 hPa 0,0 l/m 0,0 km/h N 0 0 min 0,0 UV-I 0,0 km/h
23.03.2019 00:15 2,9 C 83 % 1028,4 hPa 0,0 l/m 0,0 km/h N 0 0 min 0,0 UV-I 0,0 km/h
23.03.2019 00:00 3,2 C 83 % 1028,4 hPa 0,0 l/m 0,0 km/h N 0 0 min 0,0 UV-I 0,0 km/h
_ Min-Zeit 06:55 17:20 17:40 - 21:15 - - - - 21:15
Minimum _ -0,7 C 36 % 1025,9 hPa - 0,0 km/h - - - - 0,0 km/h
_ Max-Zeit 14:40 07:55 08:25 21:15 15:40 - - 18:20 12:45 15:40
Maximum _ 19,0 C 94 % 1029,0 hPa 0,0 l/m 9,6 km/h
W-NW
- - 5 min 3,6 UV-I 16,1 km/h
N-NW
Durchschnitt _ 8,9 C 66 % 1027,7 hPa #0,0 l/m 2,0 km/h NW - #9:35 h 2,1 UV-I 4,2 km/h